sensor_id;sensor_type;location;lat;lon;timestamp;temperature;humidity
16102;DHT22;56411;52.964;10.540;2023-05-07T00:00:23;8.60;99.90
16102;DHT22;56411;52.964;10.540;2023-05-07T00:02:50;8.60;99.90
16102;DHT22;56411;52.964;10.540;2023-05-07T00:05:17;8.60;99.90
16102;DHT22;56411;52.964;10.540;2023-05-07T00:07:44;8.60;99.90
16102;DHT22;56411;52.964;10.540;2023-05-07T00:10:11;8.60;99.90
16102;DHT22;56411;52.964;10.540;2023-05-07T00:12:40;8.60;99.90
16102;DHT22;56411;52.964;10.540;2023-05-07T00:15:11;8.60;99.90
16102;DHT22;56411;52.964;10.540;2023-05-07T00:17:38;8.60;99.90
16102;DHT22;56411;52.964;10.540;2023-05-07T00:20:06;8.50;99.90
16102;DHT22;56411;52.964;10.540;2023-05-07T00:22:33;8.60;99.90
16102;DHT22;56411;52.964;10.540;2023-05-07T00:25:01;8.60;99.90
16102;DHT22;56411;52.964;10.540;2023-05-07T00:27:28;8.60;99.90
16102;DHT22;56411;52.964;10.540;2023-05-07T00:29:57;8.50;99.90
16102;DHT22;56411;52.964;10.540;2023-05-07T00:32:24;8.60;99.90
16102;DHT22;56411;52.964;10.540;2023-05-07T00:34:51;8.60;99.90
16102;DHT22;56411;52.964;10.540;2023-05-07T00:37:18;8.60;99.90
16102;DHT22;56411;52.964;10.540;2023-05-07T00:39:45;8.60;99.90
16102;DHT22;56411;52.964;10.540;2023-05-07T00:42:12;8.60;99.90
16102;DHT22;56411;52.964;10.540;2023-05-07T00:44:40;8.60;99.90
16102;DHT22;56411;52.964;10.540;2023-05-07T00:47:09;8.60;99.90
16102;DHT22;56411;52.964;10.540;2023-05-07T00:49:38;8.60;99.90
16102;DHT22;56411;52.964;10.540;2023-05-07T00:52:07;8.60;99.90
16102;DHT22;56411;52.964;10.540;2023-05-07T00:54:36;8.60;99.90
16102;DHT22;56411;52.964;10.540;2023-05-07T00:57:03;8.60;99.90
16102;DHT22;56411;52.964;10.540;2023-05-07T00:59:32;8.60;99.90
16102;DHT22;56411;52.964;10.540;2023-05-07T01:01:59;8.60;99.90
16102;DHT22;56411;52.964;10.540;2023-05-07T01:04:30;8.60;99.90
16102;DHT22;56411;52.964;10.540;2023-05-07T01:06:58;8.60;99.90
16102;DHT22;56411;52.964;10.540;2023-05-07T01:09:25;8.60;99.90
16102;DHT22;56411;52.964;10.540;2023-05-07T01:11:53;8.60;99.90
16102;DHT22;56411;52.964;10.540;2023-05-07T01:14:23;8.60;99.90
16102;DHT22;56411;52.964;10.540;2023-05-07T01:16:51;8.60;99.90
16102;DHT22;56411;52.964;10.540;2023-05-07T01:19:19;8.60;99.90
16102;DHT22;56411;52.964;10.540;2023-05-07T01:21:48;8.60;99.90
16102;DHT22;56411;52.964;10.540;2023-05-07T01:24:17;8.50;99.90
16102;DHT22;56411;52.964;10.540;2023-05-07T01:26:45;8.50;99.90
16102;DHT22;56411;52.964;10.540;2023-05-07T01:29:12;8.60;99.90
16102;DHT22;56411;52.964;10.540;2023-05-07T01:31:40;8.60;99.90
16102;DHT22;56411;52.964;10.540;2023-05-07T01:34:08;8.60;99.90
16102;DHT22;56411;52.964;10.540;2023-05-07T01:36:37;8.60;99.90
16102;DHT22;56411;52.964;10.540;2023-05-07T01:39:06;8.50;99.90
16102;DHT22;56411;52.964;10.540;2023-05-07T01:41:35;8.50;99.90
16102;DHT22;56411;52.964;10.540;2023-05-07T01:44:03;8.50;99.90
16102;DHT22;56411;52.964;10.540;2023-05-07T01:46:33;8.50;99.90
16102;DHT22;56411;52.964;10.540;2023-05-07T01:49:01;8.50;99.90
16102;DHT22;56411;52.964;10.540;2023-05-07T01:51:28;8.50;99.90
16102;DHT22;56411;52.964;10.540;2023-05-07T01:53:55;8.50;99.90
16102;DHT22;56411;52.964;10.540;2023-05-07T01:56:22;8.50;99.90
16102;DHT22;56411;52.964;10.540;2023-05-07T01:58:51;8.50;99.90
16102;DHT22;56411;52.964;10.540;2023-05-07T02:01:18;8.50;99.90
16102;DHT22;56411;52.964;10.540;2023-05-07T02:03:45;8.50;99.90
16102;DHT22;56411;52.964;10.540;2023-05-07T02:06:12;8.50;99.90
16102;DHT22;56411;52.964;10.540;2023-05-07T02:08:39;8.50;99.90
16102;DHT22;56411;52.964;10.540;2023-05-07T02:11:06;8.50;99.90
16102;DHT22;56411;52.964;10.540;2023-05-07T02:13:34;8.50;99.90
16102;DHT22;56411;52.964;10.540;2023-05-07T02:16:03;8.50;99.90
16102;DHT22;56411;52.964;10.540;2023-05-07T02:18:31;8.50;99.90
16102;DHT22;56411;52.964;10.540;2023-05-07T02:20:58;8.50;99.90
16102;DHT22;56411;52.964;10.540;2023-05-07T02:23:26;8.50;99.90
16102;DHT22;56411;52.964;10.540;2023-05-07T02:25:53;8.50;99.90
16102;DHT22;56411;52.964;10.540;2023-05-07T02:28:20;8.50;99.90
16102;DHT22;56411;52.964;10.540;2023-05-07T02:30:47;8.50;99.90
16102;DHT22;56411;52.964;10.540;2023-05-07T02:33:15;8.50;99.90
16102;DHT22;56411;52.964;10.540;2023-05-07T02:35:43;8.40;99.90
16102;DHT22;56411;52.964;10.540;2023-05-07T02:38:10;8.50;99.90
16102;DHT22;56411;52.964;10.540;2023-05-07T02:40:37;8.40;99.90
16102;DHT22;56411;52.964;10.540;2023-05-07T02:43:05;8.50;99.90
16102;DHT22;56411;52.964;10.540;2023-05-07T02:45:32;8.50;99.90
16102;DHT22;56411;52.964;10.540;2023-05-07T02:48:00;8.40;99.90
16102;DHT22;56411;52.964;10.540;2023-05-07T02:50:28;8.40;99.90
16102;DHT22;56411;52.964;10.540;2023-05-07T02:52:55;8.50;99.90
16102;DHT22;56411;52.964;10.540;2023-05-07T02:55:23;8.50;99.90
16102;DHT22;56411;52.964;10.540;2023-05-07T02:57:50;8.50;99.90
16102;DHT22;56411;52.964;10.540;2023-05-07T03:00:18;8.50;99.90
16102;DHT22;56411;52.964;10.540;2023-05-07T03:02:45;8.50;99.90
16102;DHT22;56411;52.964;10.540;2023-05-07T03:05:12;8.50;99.90
16102;DHT22;56411;52.964;10.540;2023-05-07T03:07:41;8.50;99.90
16102;DHT22;56411;52.964;10.540;2023-05-07T03:10:10;8.50;99.90
16102;DHT22;56411;52.964;10.540;2023-05-07T03:12:38;8.40;99.90
16102;DHT22;56411;52.964;10.540;2023-05-07T03:15:06;8.50;99.90
16102;DHT22;56411;52.964;10.540;2023-05-07T03:17:33;8.40;99.90
16102;DHT22;56411;52.964;10.540;2023-05-07T03:20:01;8.50;99.90
16102;DHT22;56411;52.964;10.540;2023-05-07T03:22:28;8.50;99.90
16102;DHT22;56411;52.964;10.540;2023-05-07T03:24:57;8.50;99.90
16102;DHT22;56411;52.964;10.540;2023-05-07T03:27:24;8.50;99.90
16102;DHT22;56411;52.964;10.540;2023-05-07T03:29:51;8.50;99.90
16102;DHT22;56411;52.964;10.540;2023-05-07T03:32:18;8.40;99.90
16102;DHT22;56411;52.964;10.540;2023-05-07T03:34:45;8.40;99.90
16102;DHT22;56411;52.964;10.540;2023-05-07T03:37:12;8.50;99.90
16102;DHT22;56411;52.964;10.540;2023-05-07T03:39:39;8.50;99.90
16102;DHT22;56411;52.964;10.540;2023-05-07T03:42:08;8.50;99.90
16102;DHT22;56411;52.964;10.540;2023-05-07T03:44:35;8.50;99.90
16102;DHT22;56411;52.964;10.540;2023-05-07T03:47:03;8.50;99.90
16102;DHT22;56411;52.964;10.540;2023-05-07T03:49:30;8.50;99.90
16102;DHT22;56411;52.964;10.540;2023-05-07T03:51:57;8.50;99.90
16102;DHT22;56411;52.964;10.540;2023-05-07T03:54:24;8.50;99.90
16102;DHT22;56411;52.964;10.540;2023-05-07T03:56:51;8.50;99.90
16102;DHT22;56411;52.964;10.540;2023-05-07T03:59:19;8.50;99.90
16102;DHT22;56411;52.964;10.540;2023-05-07T04:01:46;8.50;99.90
16102;DHT22;56411;52.964;10.540;2023-05-07T04:04:14;8.50;99.90
16102;DHT22;56411;52.964;10.540;2023-05-07T04:06:41;8.60;99.90
16102;DHT22;56411;52.964;10.540;2023-05-07T04:09:08;8.50;99.90
16102;DHT22;56411;52.964;10.540;2023-05-07T04:11:35;8.60;99.90
16102;DHT22;56411;52.964;10.540;2023-05-07T04:14:03;8.60;99.90
16102;DHT22;56411;52.964;10.540;2023-05-07T04:16:31;8.60;99.90
16102;DHT22;56411;52.964;10.540;2023-05-07T04:18:58;8.60;99.90
16102;DHT22;56411;52.964;10.540;2023-05-07T04:21:25;8.60;99.90
16102;DHT22;56411;52.964;10.540;2023-05-07T04:23:52;8.60;99.90
16102;DHT22;56411;52.964;10.540;2023-05-07T04:26:20;8.60;99.90
16102;DHT22;56411;52.964;10.540;2023-05-07T04:28:48;8.60;99.90
16102;DHT22;56411;52.964;10.540;2023-05-07T04:31:16;8.60;99.90
16102;DHT22;56411;52.964;10.540;2023-05-07T04:33:44;8.60;99.90
16102;DHT22;56411;52.964;10.540;2023-05-07T04:36:12;8.70;99.90
16102;DHT22;56411;52.964;10.540;2023-05-07T04:38:39;8.60;99.90
16102;DHT22;56411;52.964;10.540;2023-05-07T04:41:06;8.70;99.90
16102;DHT22;56411;52.964;10.540;2023-05-07T04:43:34;8.70;99.90
16102;DHT22;56411;52.964;10.540;2023-05-07T04:46:01;8.70;99.90
16102;DHT22;56411;52.964;10.540;2023-05-07T04:48:28;8.70;99.90
16102;DHT22;56411;52.964;10.540;2023-05-07T04:50:56;8.80;99.90
16102;DHT22;56411;52.964;10.540;2023-05-07T04:53:23;8.80;99.90
16102;DHT22;56411;52.964;10.540;2023-05-07T04:55:55;8.80;99.90
16102;DHT22;56411;52.964;10.540;2023-05-07T04:58:22;8.80;99.90
16102;DHT22;56411;52.964;10.540;2023-05-07T05:00:49;8.80;99.90
16102;DHT22;56411;52.964;10.540;2023-05-07T05:03:16;8.80;99.90
16102;DHT22;56411;52.964;10.540;2023-05-07T05:05:44;8.80;99.90
16102;DHT22;56411;52.964;10.540;2023-05-07T05:08:12;8.80;99.90
16102;DHT22;56411;52.964;10.540;2023-05-07T05:10:39;8.80;99.90
16102;DHT22;56411;52.964;10.540;2023-05-07T05:13:07;8.90;99.90
16102;DHT22;56411;52.964;10.540;2023-05-07T05:15:34;8.90;99.90
16102;DHT22;56411;52.964;10.540;2023-05-07T05:18:02;8.90;99.90
16102;DHT22;56411;52.964;10.540;2023-05-07T05:20:29;8.90;99.90
16102;DHT22;56411;52.964;10.540;2023-05-07T05:22:56;8.90;99.90
16102;DHT22;56411;52.964;10.540;2023-05-07T05:25:25;8.90;99.90
16102;DHT22;56411;52.964;10.540;2023-05-07T05:27:52;8.90;99.90
16102;DHT22;56411;52.964;10.540;2023-05-07T05:30:19;9.00;99.90
16102;DHT22;56411;52.964;10.540;2023-05-07T05:32:46;9.00;99.90
16102;DHT22;56411;52.964;10.540;2023-05-07T05:35:13;9.00;99.90
16102;DHT22;56411;52.964;10.540;2023-05-07T05:37:40;8.90;99.90
16102;DHT22;56411;52.964;10.540;2023-05-07T05:40:07;9.00;99.90
16102;DHT22;56411;52.964;10.540;2023-05-07T05:42:36;9.00;99.90
16102;DHT22;56411;52.964;10.540;2023-05-07T05:45:04;9.10;99.90
16102;DHT22;56411;52.964;10.540;2023-05-07T05:47:31;9.10;99.90
16102;DHT22;56411;52.964;10.540;2023-05-07T05:49:58;9.10;99.90
16102;DHT22;56411;52.964;10.540;2023-05-07T05:52:25;9.10;99.90
16102;DHT22;56411;52.964;10.540;2023-05-07T05:54:53;9.20;99.90
16102;DHT22;56411;52.964;10.540;2023-05-07T05:57:20;9.20;99.90
16102;DHT22;56411;52.964;10.540;2023-05-07T05:59:49;9.20;99.90
16102;DHT22;56411;52.964;10.540;2023-05-07T06:02:16;9.20;99.90
16102;DHT22;56411;52.964;10.540;2023-05-07T06:04:43;9.20;99.90
16102;DHT22;56411;52.964;10.540;2023-05-07T06:07:10;9.20;99.90
16102;DHT22;56411;52.964;10.540;2023-05-07T06:09:38;9.20;99.90
16102;DHT22;56411;52.964;10.540;2023-05-07T06:12:05;9.30;99.90
16102;DHT22;56411;52.964;10.540;2023-05-07T06:14:32;9.30;99.90
16102;DHT22;56411;52.964;10.540;2023-05-07T06:17:00;9.30;99.90
16102;DHT22;56411;52.964;10.540;2023-05-07T06:19:27;9.30;99.90
16102;DHT22;56411;52.964;10.540;2023-05-07T06:21:55;9.40;99.90
16102;DHT22;56411;52.964;10.540;2023-05-07T06:24:27;9.40;99.90
16102;DHT22;56411;52.964;10.540;2023-05-07T06:26:54;9.50;99.90
16102;DHT22;56411;52.964;10.540;2023-05-07T06:29:24;9.50;99.90
16102;DHT22;56411;52.964;10.540;2023-05-07T06:31:51;9.40;99.90
16102;DHT22;56411;52.964;10.540;2023-05-07T06:34:20;9.50;99.90
16102;DHT22;56411;52.964;10.540;2023-05-07T06:36:47;9.50;99.90
16102;DHT22;56411;52.964;10.540;2023-05-07T06:39:14;9.50;99.90
16102;DHT22;56411;52.964;10.540;2023-05-07T06:41:41;9.50;99.90
16102;DHT22;56411;52.964;10.540;2023-05-07T06:44:08;9.70;99.90
16102;DHT22;56411;52.964;10.540;2023-05-07T06:46:36;10.00;99.90
16102;DHT22;56411;52.964;10.540;2023-05-07T06:49:03;10.10;99.90
16102;DHT22;56411;52.964;10.540;2023-05-07T06:51:32;10.20;99.90
16102;DHT22;56411;52.964;10.540;2023-05-07T06:53:59;10.40;99.90
16102;DHT22;56411;52.964;10.540;2023-05-07T06:56:26;10.40;99.90
16102;DHT22;56411;52.964;10.540;2023-05-07T06:58:53;10.20;99.90
16102;DHT22;56411;52.964;10.540;2023-05-07T07:01:20;10.10;99.90
16102;DHT22;56411;52.964;10.540;2023-05-07T07:03:47;10.00;99.90
16102;DHT22;56411;52.964;10.540;2023-05-07T07:06:14;9.80;99.90
16102;DHT22;56411;52.964;10.540;2023-05-07T07:08:43;9.80;99.90
16102;DHT22;56411;52.964;10.540;2023-05-07T07:11:10;9.90;99.90
16102;DHT22;56411;52.964;10.540;2023-05-07T07:13:37;9.80;99.90
16102;DHT22;56411;52.964;10.540;2023-05-07T07:16:05;9.90;99.90
16102;DHT22;56411;52.964;10.540;2023-05-07T07:18:33;9.90;99.90
16102;DHT22;56411;52.964;10.540;2023-05-07T07:21:00;9.90;99.90
16102;DHT22;56411;52.964;10.540;2023-05-07T07:23:27;9.90;99.90
16102;DHT22;56411;52.964;10.540;2023-05-07T07:25:55;9.90;99.90
16102;DHT22;56411;52.964;10.540;2023-05-07T07:28:22;9.90;99.90
16102;DHT22;56411;52.964;10.540;2023-05-07T07:30:50;10.00;99.90
16102;DHT22;56411;52.964;10.540;2023-05-07T07:33:17;10.10;99.90
16102;DHT22;56411;52.964;10.540;2023-05-07T07:35:44;10.20;99.90
16102;DHT22;56411;52.964;10.540;2023-05-07T07:38:11;10.20;99.90
16102;DHT22;56411;52.964;10.540;2023-05-07T07:40:39;10.20;99.90
16102;DHT22;56411;52.964;10.540;2023-05-07T07:43:07;10.20;99.90
16102;DHT22;56411;52.964;10.540;2023-05-07T07:45:34;10.30;99.90
16102;DHT22;56411;52.964;10.540;2023-05-07T07:48:02;10.30;99.90
16102;DHT22;56411;52.964;10.540;2023-05-07T07:50:30;10.30;99.90
16102;DHT22;56411;52.964;10.540;2023-05-07T07:52:57;10.40;99.90
16102;DHT22;56411;52.964;10.540;2023-05-07T07:55:24;10.40;99.90
16102;DHT22;56411;52.964;10.540;2023-05-07T07:57:52;10.50;99.90
16102;DHT22;56411;52.964;10.540;2023-05-07T08:00:22;10.50;99.90
16102;DHT22;56411;52.964;10.540;2023-05-07T08:02:49;10.40;99.90
16102;DHT22;56411;52.964;10.540;2023-05-07T08:05:16;10.50;99.90
16102;DHT22;56411;52.964;10.540;2023-05-07T08:07:44;10.60;99.90
16102;DHT22;56411;52.964;10.540;2023-05-07T08:10:11;10.60;99.90
16102;DHT22;56411;52.964;10.540;2023-05-07T08:12:46;10.80;99.90
16102;DHT22;56411;52.964;10.540;2023-05-07T08:15:13;10.90;99.90
16102;DHT22;56411;52.964;10.540;2023-05-07T08:17:43;11.00;99.90
16102;DHT22;56411;52.964;10.540;2023-05-07T08:20:10;11.20;99.90
16102;DHT22;56411;52.964;10.540;2023-05-07T08:22:38;11.20;99.90
16102;DHT22;56411;52.964;10.540;2023-05-07T08:25:06;11.20;99.90
16102;DHT22;56411;52.964;10.540;2023-05-07T08:27:33;11.10;99.90
16102;DHT22;56411;52.964;10.540;2023-05-07T08:30:00;11.10;99.90
16102;DHT22;56411;52.964;10.540;2023-05-07T08:32:27;11.20;99.90
16102;DHT22;56411;52.964;10.540;2023-05-07T08:34:56;11.20;99.90
16102;DHT22;56411;52.964;10.540;2023-05-07T08:37:23;11.20;99.90
16102;DHT22;56411;52.964;10.540;2023-05-07T08:39:50;11.20;99.90
16102;DHT22;56411;52.964;10.540;2023-05-07T08:42:17;11.10;99.90
16102;DHT22;56411;52.964;10.540;2023-05-07T08:44:45;11.10;99.90
16102;DHT22;56411;52.964;10.540;2023-05-07T08:47:13;11.20;99.90
16102;DHT22;56411;52.964;10.540;2023-05-07T08:49:41;11.20;99.90
16102;DHT22;56411;52.964;10.540;2023-05-07T08:52:11;11.30;99.90
16102;DHT22;56411;52.964;10.540;2023-05-07T08:54:39;11.40;99.90
16102;DHT22;56411;52.964;10.540;2023-05-07T08:57:06;11.40;99.90
16102;DHT22;56411;52.964;10.540;2023-05-07T08:59:34;11.50;99.90
16102;DHT22;56411;52.964;10.540;2023-05-07T09:02:03;11.60;99.90
16102;DHT22;56411;52.964;10.540;2023-05-07T09:04:31;11.50;99.90
16102;DHT22;56411;52.964;10.540;2023-05-07T09:06:58;11.60;99.90
16102;DHT22;56411;52.964;10.540;2023-05-07T09:09:32;11.60;99.90
16102;DHT22;56411;52.964;10.540;2023-05-07T09:12:00;11.50;99.90
16102;DHT22;56411;52.964;10.540;2023-05-07T09:14:27;11.60;99.90
16102;DHT22;56411;52.964;10.540;2023-05-07T09:16:56;11.60;99.90
16102;DHT22;56411;52.964;10.540;2023-05-07T09:19:24;11.70;99.90
16102;DHT22;56411;52.964;10.540;2023-05-07T09:21:58;11.70;99.90
16102;DHT22;56411;52.964;10.540;2023-05-07T09:24:26;11.80;99.90
16102;DHT22;56411;52.964;10.540;2023-05-07T09:27:08;11.90;99.90
16102;DHT22;56411;52.964;10.540;2023-05-07T09:29:38;12.00;99.90
16102;DHT22;56411;52.964;10.540;2023-05-07T09:32:07;12.00;99.90
16102;DHT22;56411;52.964;10.540;2023-05-07T09:34:35;12.20;99.90
16102;DHT22;56411;52.964;10.540;2023-05-07T09:37:03;12.30;99.90
16102;DHT22;56411;52.964;10.540;2023-05-07T09:39:39;12.40;99.90
16102;DHT22;56411;52.964;10.540;2023-05-07T09:42:08;12.50;99.90
16102;DHT22;56411;52.964;10.540;2023-05-07T09:44:36;12.60;99.90
16102;DHT22;56411;52.964;10.540;2023-05-07T09:47:05;12.60;99.90
16102;DHT22;56411;52.964;10.540;2023-05-07T09:49:34;12.60;99.90
16102;DHT22;56411;52.964;10.540;2023-05-07T09:52:03;12.60;99.90
16102;DHT22;56411;52.964;10.540;2023-05-07T09:54:35;12.50;99.90
16102;DHT22;56411;52.964;10.540;2023-05-07T09:57:04;12.40;99.90
16102;DHT22;56411;52.964;10.540;2023-05-07T09:59:34;12.30;99.90
16102;DHT22;56411;52.964;10.540;2023-05-07T10:02:04;12.30;99.90
16102;DHT22;56411;52.964;10.540;2023-05-07T10:04:32;12.30;99.90
16102;DHT22;56411;52.964;10.540;2023-05-07T10:06:59;12.20;99.90
16102;DHT22;56411;52.964;10.540;2023-05-07T10:09:27;12.50;99.90
16102;DHT22;56411;52.964;10.540;2023-05-07T10:11:55;12.70;99.90
16102;DHT22;56411;52.964;10.540;2023-05-07T10:14:23;13.00;99.90
16102;DHT22;56411;52.964;10.540;2023-05-07T10:16:53;13.20;99.90
16102;DHT22;56411;52.964;10.540;2023-05-07T10:19:22;13.30;99.90
16102;DHT22;56411;52.964;10.540;2023-05-07T10:21:54;13.50;99.90
16102;DHT22;56411;52.964;10.540;2023-05-07T10:24:25;13.60;99.90
16102;DHT22;56411;52.964;10.540;2023-05-07T10:26:54;13.60;99.90
16102;DHT22;56411;52.964;10.540;2023-05-07T10:29:32;13.60;99.90
16102;DHT22;56411;52.964;10.540;2023-05-07T10:32:15;13.80;99.90
16102;DHT22;56411;52.964;10.540;2023-05-07T10:34:47;14.20;99.90
16102;DHT22;56411;52.964;10.540;2023-05-07T10:37:15;13.90;99.90
16102;DHT22;56411;52.964;10.540;2023-05-07T10:39:43;14.00;99.90
16102;DHT22;56411;52.964;10.540;2023-05-07T10:42:13;13.70;99.90
16102;DHT22;56411;52.964;10.540;2023-05-07T10:44:40;13.60;99.90
16102;DHT22;56411;52.964;10.540;2023-05-07T10:47:10;13.80;99.90
16102;DHT22;56411;52.964;10.540;2023-05-07T10:52:43;14.10;99.90
16102;DHT22;56411;52.964;10.540;2023-05-07T10:55:21;14.50;99.90
16102;DHT22;56411;52.964;10.540;2023-05-07T10:57:51;14.80;99.90
16102;DHT22;56411;52.964;10.540;2023-05-07T11:00:41;14.60;99.90
16102;DHT22;56411;52.964;10.540;2023-05-07T11:03:09;14.40;99.90
16102;DHT22;56411;52.964;10.540;2023-05-07T11:05:37;14.40;99.90
16102;DHT22;56411;52.964;10.540;2023-05-07T11:08:05;14.50;99.90
16102;DHT22;56411;52.964;10.540;2023-05-07T11:10:48;14.60;99.90
16102;DHT22;56411;52.964;10.540;2023-05-07T11:13:16;14.60;99.90
16102;DHT22;56411;52.964;10.540;2023-05-07T11:16:31;14.70;99.90
16102;DHT22;56411;52.964;10.540;2023-05-07T11:18:48;14.50;99.90
16102;DHT22;56411;52.964;10.540;2023-05-07T11:21:33;14.30;99.90
16102;DHT22;56411;52.964;10.540;2023-05-07T11:24:01;13.90;99.90
16102;DHT22;56411;52.964;10.540;2023-05-07T11:26:30;13.90;99.90
16102;DHT22;56411;52.964;10.540;2023-05-07T11:28:57;14.10;99.90
16102;DHT22;56411;52.964;10.540;2023-05-07T11:31:28;14.10;99.90
16102;DHT22;56411;52.964;10.540;2023-05-07T11:33:57;14.10;99.90
16102;DHT22;56411;52.964;10.540;2023-05-07T11:36:25;14.50;99.90
16102;DHT22;56411;52.964;10.540;2023-05-07T11:38:55;14.50;99.90
16102;DHT22;56411;52.964;10.540;2023-05-07T11:41:22;14.50;99.90
16102;DHT22;56411;52.964;10.540;2023-05-07T11:43:56;14.50;99.90
16102;DHT22;56411;52.964;10.540;2023-05-07T11:46:24;14.50;99.90
16102;DHT22;56411;52.964;10.540;2023-05-07T11:48:51;14.80;99.90
16102;DHT22;56411;52.964;10.540;2023-05-07T11:51:21;14.90;99.90
16102;DHT22;56411;52.964;10.540;2023-05-07T11:53:52;15.20;99.90
16102;DHT22;56411;52.964;10.540;2023-05-07T11:56:20;15.40;99.90
16102;DHT22;56411;52.964;10.540;2023-05-07T11:58:48;15.90;99.90
16102;DHT22;56411;52.964;10.540;2023-05-07T12:01:17;16.50;99.90
16102;DHT22;56411;52.964;10.540;2023-05-07T12:03:45;16.30;99.90
16102;DHT22;56411;52.964;10.540;2023-05-07T12:06:16;16.40;99.90
16102;DHT22;56411;52.964;10.540;2023-05-07T12:08:46;16.40;99.90
16102;DHT22;56411;52.964;10.540;2023-05-07T12:11:15;16.30;99.90
16102;DHT22;56411;52.964;10.540;2023-05-07T12:13:44;16.10;99.90
16102;DHT22;56411;52.964;10.540;2023-05-07T12:16:16;16.00;99.90
16102;DHT22;56411;52.964;10.540;2023-05-07T12:18:44;16.10;99.90
16102;DHT22;56411;52.964;10.540;2023-05-07T12:21:31;16.60;99.90
16102;DHT22;56411;52.964;10.540;2023-05-07T12:27:37;16.60;99.90
16102;DHT22;56411;52.964;10.540;2023-05-07T12:30:22;16.90;99.90
16102;DHT22;56411;52.964;10.540;2023-05-07T12:32:54;16.90;99.90
16102;DHT22;56411;52.964;10.540;2023-05-07T12:35:28;16.90;99.90
16102;DHT22;56411;52.964;10.540;2023-05-07T12:38:08;17.30;99.90
16102;DHT22;56411;52.964;10.540;2023-05-07T12:40:38;17.60;99.90
16102;DHT22;56411;52.964;10.540;2023-05-07T12:43:07;18.10;99.90
16102;DHT22;56411;52.964;10.540;2023-05-07T12:45:37;18.20;99.90
16102;DHT22;56411;52.964;10.540;2023-05-07T12:48:05;18.00;99.90
16102;DHT22;56411;52.964;10.540;2023-05-07T12:50:33;18.20;99.90
16102;DHT22;56411;52.964;10.540;2023-05-07T12:53:00;18.30;99.90
16102;DHT22;56411;52.964;10.540;2023-05-07T12:55:32;17.80;99.90
16102;DHT22;56411;52.964;10.540;2023-05-07T12:58:02;17.70;99.90
16102;DHT22;56411;52.964;10.540;2023-05-07T13:00:34;18.20;99.90
16102;DHT22;56411;52.964;10.540;2023-05-07T13:03:08;18.00;99.90
16102;DHT22;56411;52.964;10.540;2023-05-07T13:05:36;17.90;99.90
16102;DHT22;56411;52.964;10.540;2023-05-07T13:08:05;18.10;99.90
16102;DHT22;56411;52.964;10.540;2023-05-07T13:10:35;17.90;99.90
16102;DHT22;56411;52.964;10.540;2023-05-07T13:13:04;17.90;99.90
16102;DHT22;56411;52.964;10.540;2023-05-07T13:15:35;18.10;99.90
16102;DHT22;56411;52.964;10.540;2023-05-07T13:18:08;18.80;99.90
16102;DHT22;56411;52.964;10.540;2023-05-07T13:20:39;19.60;99.90
16102;DHT22;56411;52.964;10.540;2023-05-07T13:23:18;20.30;99.90
16102;DHT22;56411;52.964;10.540;2023-05-07T13:25:48;21.10;99.90
16102;DHT22;56411;52.964;10.540;2023-05-07T13:28:22;21.40;99.90
16102;DHT22;56411;52.964;10.540;2023-05-07T13:30:58;22.50;99.90
16102;DHT22;56411;52.964;10.540;2023-05-07T13:34:04;22.20;99.90
16102;DHT22;56411;52.964;10.540;2023-05-07T13:36:55;22.50;99.90
16102;DHT22;56411;52.964;10.540;2023-05-07T13:39:38;22.90;99.90
16102;DHT22;56411;52.964;10.540;2023-05-07T13:42:06;23.30;99.90
16102;DHT22;56411;52.964;10.540;2023-05-07T13:44:37;23.60;99.90
16102;DHT22;56411;52.964;10.540;2023-05-07T13:47:05;23.30;99.90
16102;DHT22;56411;52.964;10.540;2023-05-07T13:49:32;23.80;99.90
16102;DHT22;56411;52.964;10.540;2023-05-07T13:52:00;23.70;99.90
16102;DHT22;56411;52.964;10.540;2023-05-07T13:54:27;23.80;99.90
16102;DHT22;56411;52.964;10.540;2023-05-07T13:56:55;23.20;99.90
16102;DHT22;56411;52.964;10.540;2023-05-07T13:59:22;21.90;99.90
16102;DHT22;56411;52.964;10.540;2023-05-07T14:01:51;21.00;99.90
16102;DHT22;56411;52.964;10.540;2023-05-07T14:04:21;20.40;99.90
16102;DHT22;56411;52.964;10.540;2023-05-07T14:06:54;19.90;99.90
16102;DHT22;56411;52.964;10.540;2023-05-07T14:09:21;20.40;99.90
16102;DHT22;56411;52.964;10.540;2023-05-07T14:11:50;20.80;99.90
16102;DHT22;56411;52.964;10.540;2023-05-07T14:14:18;21.90;99.90
16102;DHT22;56411;52.964;10.540;2023-05-07T14:19:37;22.60;99.90
16102;DHT22;56411;52.964;10.540;2023-05-07T14:22:05;23.10;99.90
16102;DHT22;56411;52.964;10.540;2023-05-07T14:24:32;23.00;99.90
16102;DHT22;56411;52.964;10.540;2023-05-07T14:27:00;22.70;99.90
16102;DHT22;56411;52.964;10.540;2023-05-07T14:29:27;22.80;99.90
16102;DHT22;56411;52.964;10.540;2023-05-07T14:31:55;23.30;99.90
16102;DHT22;56411;52.964;10.540;2023-05-07T14:34:22;23.90;99.90
16102;DHT22;56411;52.964;10.540;2023-05-07T14:36:51;24.40;99.90
16102;DHT22;56411;52.964;10.540;2023-05-07T14:39:19;25.00;99.90
16102;DHT22;56411;52.964;10.540;2023-05-07T14:41:47;25.20;99.90
16102;DHT22;56411;52.964;10.540;2023-05-07T14:44:14;25.10;99.90
16102;DHT22;56411;52.964;10.540;2023-05-07T14:46:42;25.00;99.90
16102;DHT22;56411;52.964;10.540;2023-05-07T14:49:09;24.40;99.90
16102;DHT22;56411;52.964;10.540;2023-05-07T14:51:42;25.10;99.90
16102;DHT22;56411;52.964;10.540;2023-05-07T14:54:11;25.50;99.70
16102;DHT22;56411;52.964;10.540;2023-05-07T14:56:38;25.30;99.90
16102;DHT22;56411;52.964;10.540;2023-05-07T14:59:06;25.70;99.90
16102;DHT22;56411;52.964;10.540;2023-05-07T15:01:34;26.70;98.10
16102;DHT22;56411;52.964;10.540;2023-05-07T15:04:03;26.70;97.90
16102;DHT22;56411;52.964;10.540;2023-05-07T15:06:31;26.10;98.40
16102;DHT22;56411;52.964;10.540;2023-05-07T15:09:01;26.30;97.90
16102;DHT22;56411;52.964;10.540;2023-05-07T15:11:29;25.90;98.00
16102;DHT22;56411;52.964;10.540;2023-05-07T15:13:57;25.40;97.00
16102;DHT22;56411;52.964;10.540;2023-05-07T15:16:24;25.10;97.90
16102;DHT22;56411;52.964;10.540;2023-05-07T15:18:51;24.90;98.20
16102;DHT22;56411;52.964;10.540;2023-05-07T15:21:20;25.40;97.30
16102;DHT22;56411;52.964;10.540;2023-05-07T15:23:47;25.50;97.90
16102;DHT22;56411;52.964;10.540;2023-05-07T15:26:16;25.60;97.10
16102;DHT22;56411;52.964;10.540;2023-05-07T15:28:44;25.50;96.70
16102;DHT22;56411;52.964;10.540;2023-05-07T15:31:11;24.70;97.70
16102;DHT22;56411;52.964;10.540;2023-05-07T15:33:38;25.20;97.60
16102;DHT22;56411;52.964;10.540;2023-05-07T15:36:07;25.70;96.30
16102;DHT22;56411;52.964;10.540;2023-05-07T15:38:34;26.00;95.60
16102;DHT22;56411;52.964;10.540;2023-05-07T15:41:01;25.90;95.80